Portada
METAR-TAF:

METAR-TAF

Aeroports :

Khartum, Sudan

latitud: 15-36N, longitud: 032-33E, altitud: 382 m

Observació

L'informe es va fer fa 2 hores i 36 minuts, a les 06:00 UTC
Vent 13 kt del Nord
Temperatura 28°C
Humitat 10%
Pressió 1013 hPa
Visibilitat 10 km o més
sense núvols per sota de 1500 mi sense presència de cumulonimbus.

METAR: HSSS 240600Z 01013KT CAVOK 28/M07 Q1013 NOSIG

Hora: 11:36 (08:36 UTC)

Pronòstic

L'informe es va fer fa 9 hores i 36 minuts, a les 23:00 UTC
Pronòstic vàlid del 24 a les 00 UTC al 25 a les 06 UTC
Vent 10 kt del Nord amb ràfegues de 20 kt
Visibilitat 10 km o més
sense núvols per sota de 1500 mi sense presència de cumulonimbus.
Probabilitat 30% :
Temporalment
l' 24 a les 03 UTC al 24 a les 08 UTC
Visibilitat: 5000 m

TAF: HSSS 232300Z 2400/2506 36010G20KT CAVOK PROB30 TEMPO 2403/2408 5000

Observacions i pronòstics meteorològics de més de 4000 aeroports (METAR i TAF).

Les estacions disponibles són els punts grocs i vermells al mapa.

Posi el ratolí al punt desitjat per veure el nom de l'estació.

Feu clic per veure les observacions i els pronòstics meteorològics.

Per canviar el mapa: feu clic els botons verds amb una creu de color negre per apropar; al botó verd amb un guió per allunyar la imatge; o en les fletxes verdes per a mapes adjacents.


METAR-TAF: